Date,TemperatureHighF,TemperatureAvgF,TemperatureLowF,DewpointHighF,DewpointAvgF,DewpointLowF,HumidityHigh,HumidityAvg,HumidityLow,PressureMaxIn,PressureMinIn,WindSpeedMaxMPH,WindSpeedAvgMPH,GustSpeedMaxMPH,PrecipitationSumIn
2013-1-1,31.8,25.0,9.1,21.1,8.0,-9.7,67,49,34,29.48,29.28,6,2,21,0.00
2013-1-2,25.5,12.0,1.4,7.4,-3.1,-15.5,60,50,34,29.66,29.45,6,1,14,0.00
2013-1-3,20.1,7.8,-3.8,18.5,-12.8,-22.1,97,39,21,29.67,29.53,4,1,11,0.00
2013-1-4,35.4,24.7,8.1,16.6,11.1,-3.4,75,56,44,29.53,29.33,5,2,16,0.00
2013-1-5,40.3,31.8,25.7,19.0,14.2,7.5,63,49,30,29.78,29.42,5,2,17,0.00
2013-1-8,29.7,25.3,23.2,20.1,17.2,15.6,74,71,66,29.93,29.86,1,0,2,0.01
2013-1-9,40.5,30.2,15.1,27.7,19.9,8.4,78,66,44,29.94,29.58,7,2,19,0.01
2013-1-10,41.5,36.8,28.6,26.1,20.4,15.5,62,51,38,30.09,29.62,9,3,21,0.01
2013-1-11,38.7,31.1,19.9,29.7,21.3,13.3,86,68,43,30.09,29.77,4,1,10,0.08
2013-1-12,42.8,37.3,33.3,38.3,33.9,29.5,91,87,83,29.79,29.70,3,1,7,0.02
2013-1-13,45.3,41.0,35.2,42.9,38.4,31.8,93,90,86,29.73,29.59,5,1,11,0.00
2013-1-14,53.8,42.6,32.9,48.5,35.3,20.3,93,77,49,29.86,29.46,6,2,14,0.01
2013-1-15,38.5,30.7,23.9,22.6,18.9,15.9,79,62,44,29.90,29.79,3,0,7,0.00
2013-1-16,31.1,28.5,25.9,26.4,22.3,16.9,86,77,62,29.81,29.40,1,0,4,0.00
2013-1-17,38.3,29.5,21.4,27.1,17.9,-0.3,86,63,38,29.67,29.40,4,1,13,0.06
2013-1-18,22.1,14.1,5.5,3.1,-8.9,-15.1,53,36,22,29.94,29.60,5,1,16,0.01
2013-1-19,41.9,26.9,14.4,22.4,9.1,-0.8,57,47,41,29.87,29.44,6,4,17,0.04
2013-1-20,44.4,33.3,21.9,25.5,14.8,0.5,62,47,26,29.50,29.15,6,4,20,0.02
2013-1-21,23.7,17.9,10.6,7.9,-1.0,-11.0,70,44,21,29.61,29.34,5,1,17,0.00
2013-1-22,20.7,12.0,1.8,6.1,-4.7,-15.4,70,49,24,29.59,29.31,4,1,15,0.00
2013-1-23,11.7,3.2,-7.1,-10.2,-20.4,-25.6,54,32,21,29.63,29.55,6,1,19,0.00
2013-1-24,15.6,2.3,-9.2,-14.6,-20.6,-26.2,51,34,22,29.62,29.58,6,2,17,0.00
2013-1-25,18.9,9.8,1.0,0.1,-17.3,-25.8,60,28,21,29.81,29.58,6,2,9,0.00
2013-1-26,19.9,11.0,4.3,0.3,-10.5,-17.9,61,39,22,29.76,29.54,5,2,10,0.00
2013-1-27,27.1,14.5,7.7,-6.4,-9.4,-14.9,46,34,21,29.99,29.75,5,2,12,0.00
2013-1-28,24.4,19.0,6.6,16.0,8.8,-9.8,76,65,34,29.98,29.57,4,0,6,0.00
2013-1-29,34.2,27.1,19.4,27.7,20.7,13.1,87,77,64,29.75,29.58,2,1,5,0.01
2013-1-30,54.9,43.7,31.3,52.9,41.3,27.9,94,91,86,29.70,29.04,7,3,20,0.18
2013-1-31,57.6,40.8,24.1,55.0,30.1,6.5,94,67,36,29.16,28.44,11,5,26,0.82
2013-2-1,30.9,21.9,16.0,10.3,0.2,-9.9,58,39,24,29.61,29.15,6,3,20,0.00
2013-2-2,25.5,18.3,7.5,8.2,-3.2,-9.0,63,39,27,29.75,29.58,6,2,14,0.00
2013-2-3,28.6,20.4,12.0,11.8,8.4,4.4,71,60,41,29.59,29.29,3,0,10,0.00
2013-2-4,24.8,16.8,11.5,8.1,4.5,-1.6,73,59,33,29.34,29.28,5,1,16,0.00
2013-2-8,21.4,17.5,13.5,14.4,10.0,6.0,75,72,67,29.85,29.28,10,6,25,0.00
2013-2-9,18.9,14.1,8.8,10.7,4.8,-6.5,73,66,47,29.75,29.25,8,5,22,0.09
2013-2-10,39.9,22.3,4.1,10.2,-1.1,-11.2,60,38,21,29.96,29.77,6,2,12,0.00
2013-2-11,39.4,28.1,9.9,37.5,21.1,-2.2,94,76,42,29.88,29.23,4,1,10,0.29
2013-2-12,39.0,34.0,30.6,33.0,23.7,18.0,90,66,52,29.46,29.22,5,2,19,0.01
2013-2-13,44.1,31.4,25.3,21.9,17.3,14.4,66,56,39,29.44,29.31,4,1,10,0.00
2013-2-14,43.9,30.4,17.4,18.7,14.4,10.2,76,53,29,29.56,29.30,4,1,9,0.00
2013-2-15,50.4,32.6,18.7,27.0,20.9,9.8,83,63,37,29.55,29.47,6,1,16,0.00
2013-2-16,40.5,30.8,23.0,24.2,16.9,-3.7,83,58,31,29.55,29.33,4,1,12,0.06
2013-2-17,22.8,16.4,9.7,0.6,-7.2,-14.0,51,34,28,29.33,28.95,9,5,24,0.01
2013-2-18,27.7,16.1,6.8,-7.1,-10.8,-14.1,37,29,21,29.69,29.26,7,3,25,0.00
2013-2-19,43.7,30.1,12.6,35.7,15.1,-9.1,92,56,28,29.71,29.18,6,2,14,0.10
2013-2-20,34.9,26.7,20.1,31.7,12.8,0.7,88,57,31,29.34,29.15,6,2,21,0.02
2013-2-21,29.3,21.5,15.6,8.2,4.2,-1.2,65,47,29,29.80,29.32,6,3,18,0.00
2013-2-22,40.8,26.6,10.8,16.4,11.1,3.9,76,54,32,29.93,29.80,5,2,12,0.00
2013-2-23,31.6,29.4,26.2,27.0,21.4,13.5,85,72,57,29.88,29.50,4,2,8,0.00
2013-2-24,35.1,31.6,29.1,30.6,27.6,25.5,88,85,79,29.51,29.32,4,1,10,0.03
2013-2-25,39.2,31.2,22.3,30.6,25.0,17.7,86,78,62,29.81,29.48,2,0,6,0.11
2013-2-26,45.0,33.2,25.2,30.0,24.5,19.1,87,71,51,29.89,29.71,5,1,13,0.15
2013-2-27,36.5,32.6,30.7,32.1,28.3,23.0,88,84,69,29.73,29.21,8,4,24,0.68
2013-2-28,45.5,33.6,29.1,38.0,29.5,26.0,88,85,71,29.22,29.14,4,0,8,0.26
2013-3-1,37.9,32.4,29.8,28.9,21.8,19.4,88,66,50,29.29,29.15,4,2,10,0.01
2013-3-2,37.6,32.1,28.0,23.6,20.1,16.5,70,61,52,29.28,29.23,4,2,11,0.00
2013-3-3,39.0,30.2,25.3,25.3,19.2,15.7,71,63,54,29.24,29.18,3,1,7,0.02
2013-3-4,36.5,28.8,22.8,18.2,16.1,11.7,64,59,42,29.36,29.20,7,3,16,0.01
2013-3-5,45.1,31.5,21.6,24.9,19.4,12.5,79,61,42,29.65,29.36,5,2,11,0.00
2013-3-6,34.0,31.8,29.1,28.7,26.1,22.2,86,79,71,29.69,29.50,10,6,31,0.08
2013-3-7,32.7,29.2,26.8,25.5,22.5,19.6,86,76,68,29.69,29.62,9,6,23,0.02
2013-3-8,37.8,32.0,25.7,28.0,22.1,16.1,86,67,52,29.78,29.56,7,4,15,0.11
2013-3-9,57.0,34.5,18.1,19.5,15.3,10.0,80,51,20,29.92,29.75,6,2,14,0.00
2013-3-10,53.6,34.7,18.1,25.2,20.5,11.6,81,59,27,29.96,29.85,4,2,9,0.00
2013-3-11,48.0,39.0,29.8,35.5,28.4,24.3,82,67,45,29.88,29.72,6,2,12,0.00
2013-3-12,49.1,45.4,40.6,46.4,42.1,35.2,94,88,79,29.71,29.32,6,4,11,0.36
2013-3-13,40.5,37.2,35.1,38.9,34.6,31.0,95,90,83,29.39,29.36,3,1,10,0.00
2013-3-14,31.6,22.2,16.9,19.2,2.2,-5.1,66,42,32,29.41,29.28,7,2,13,0.00
2013-3-15,17.4,17.0,16.0,2.4,0.0,-2.5,52,46,43,29.41,29.39,4,2,14,0.00
2013-3-16,37.9,30.0,19.4,16.9,4.7,0.4,62,35,22,29.46,29.28,3,1,8,0.00
2013-3-17,36.5,23.4,9.9,9.8,0.5,-9.5,69,40,22,29.85,29.45,6,2,17,0.00
2013-3-18,41.4,23.2,3.6,18.4,-1.0,-10.3,75,37,21,29.98,29.77,4,1,11,0.00
2013-3-19,32.0,27.5,21.9,27.1,22.4,16.4,86,81,75,29.77,29.25,8,3,23,0.00
2013-3-20,37.9,25.9,18.1,19.9,14.1,8.0,80,62,35,29.37,29.28,5,2,17,0.04
2013-3-21,43.2,25.1,6.4,19.2,5.7,-2.7,74,47,23,29.37,29.18,4,1,8,0.10
2013-3-22,42.4,27.5,14.2,17.7,10.1,4.0,65,48,28,29.32,29.21,4,2,13,0.00
2013-3-23,44.6,33.3,17.8,17.3,11.3,6.4,67,41,24,29.39,29.24,8,3,19,0.00
2013-3-24,45.1,34.5,27.1,20.0,16.4,13.4,62,48,32,29.43,29.35,6,2,15,0.00
2013-3-25,43.2,33.0,23.5,23.9,18.8,13.9,67,56,42,29.38,29.12,7,3,14,0.00
2013-3-26,50.0,36.0,25.0,25.4,18.2,10.0,69,51,23,29.40,29.17,4,1,11,0.00
2013-3-27,54.0,35.8,18.0,25.2,16.7,9.1,75,49,22,29.49,29.37,4,1,14,0.00
2013-3-28,52.0,37.9,29.8,34.0,26.9,21.9,86,67,35,29.63,29.49,4,1,8,0.02
2013-3-29,57.2,40.7,29.5,34.6,26.6,21.2,87,61,28,29.66,29.59,4,1,11,0.01
2013-3-30,41.9,31.6,28.9,32.1,24.7,23.1,81,75,65,29.67,29.64,1,0,4,0.00
2013-3-31,36.5,32.4,30.0,32.1,28.6,24.1,88,86,74,29.37,28.90,10,4,21,0.69
2013-4-1,43.5,32.9,29.1,37.7,29.1,26.0,88,86,73,28.92,28.83,2,0,2,0.26
2013-4-2,37.9,33.4,30.0,28.9,22.6,19.4,88,65,51,28.99,28.86,5,2,8,0.01
2013-4-3,43.9,33.4,28.0,23.5,9.6,0.5,69,39,21,29.44,28.92,5,2,15,1.12
2013-4-4,54.7,38.4,23.4,19.5,11.5,5.8,51,35,20,29.56,29.31,5,2,11,0.00
2013-4-5,59.0,42.8,32.7,24.4,19.9,14.2,66,43,21,29.32,29.01,5,2,14,0.00
2013-4-6,45.9,33.0,24.3,19.2,6.3,-0.5,55,34,21,29.62,29.20,7,2,18,0.00
2013-4-7,55.9,39.3,23.9,36.3,16.3,-1.8,81,41,21,29.60,29.28,8,3,21,0.00
2013-4-8,66.4,48.4,34.0,38.3,32.5,25.2,90,59,23,29.42,29.26,5,1,11,0.00
2013-4-9,68.2,51.7,39.0,48.1,40.0,35.0,94,67,36,29.38,29.18,5,2,14,0.04
2013-4-10,45.0,43.9,43.3,40.8,39.1,37.6,90,83,78,29.32,29.26,2,1,3,0.00
2013-4-11,47.7,38.5,33.8,42.8,29.6,22.4,94,71,46,29.44,29.18,4,2,9,0.02
2013-4-12,35.2,32.2,30.2,28.8,27.3,24.3,88,82,65,29.45,29.11,7,2,21,0.01
2013-4-13,55.4,39.7,31.5,36.9,31.1,28.3,88,73,40,29.26,29.07,4,1,13,0.38
2013-4-14,49.8,39.1,28.2,35.0,26.7,20.7,87,63,38,29.53,29.23,4,1,16,0.01
2013-4-15,61.5,43.6,25.2,36.8,26.6,20.1,87,56,27,29.68,29.52,3,1,9,0.00
2013-4-16,66.4,47.4,30.7,48.9,35.8,24.4,88,66,37,29.68,29.38,10,3,21,0.00
2013-4-17,65.7,52.2,36.7,50.2,31.9,21.9,93,52,21,29.65,29.39,4,2,13,0.02
2013-4-18,64.0,49.3,32.9,32.4,27.5,23.0,79,45,26,29.70,29.50,6,3,14,0.00
2013-4-19,72.3,60.3,48.7,60.4,54.3,44.0,100,82,54,29.43,28.98,11,5,14,0.07
2013-4-20,61.2,47.4,34.9,59.4,26.5,14.7,94,46,28,29.54,28.98,6,3,14,0.27
2013-4-21,53.8,38.7,27.9,18.8,14.9,10.2,63,40,21,29.96,29.54,6,2,13,0.00
2013-4-22,54.3,39.8,27.3,28.2,20.4,13.1,74,49,24,30.01,29.88,7,3,17,0.00
2013-4-23,37.4,35.0,32.4,36.6,30.8,25.7,97,85,73,29.88,29.43,6,3,16,0.00
2013-4-24,76.8,55.3,37.4,47.8,40.7,30.8,100,65,21,29.42,29.14,6,3,16,0.01
2013-4-25,63.7,50.2,32.7,49.6,31.5,16.3,100,55,19,29.61,29.14,6,2,14,0.03
2013-4-26,64.4,47.5,30.0,35.8,28.4,23.2,79,51,22,29.73,29.59,5,2,13,0.00
2013-4-27,70.5,50.8,30.9,37.7,31.9,21.5,95,55,17,29.73,29.60,4,1,11,0.00
2013-4-28,75.0,54.8,32.9,45.2,33.8,25.9,97,53,18,29.64,29.54,4,1,9,0.00
2013-4-29,70.9,54.7,40.6,45.5,34.2,19.8,79,49,24,29.59,29.51,5,2,11,0.00
2013-4-30,59.7,50.5,46.4,34.7,26.8,19.7,61,41,23,29.68,29.54,3,0,4,0.00
2013-5-1,77.0,59.8,44.2,33.5,30.9,26.5,65,37,17,29.81,29.68,5,1,8,0.00
2013-5-2,83.3,57.1,38.1,48.5,35.8,28.6,97,53,16,29.82,29.68,8,1,20,0.00
2013-5-3,66.0,47.6,36.1,43.9,37.7,32.5,97,71,39,29.82,29.70,6,2,14,0.00
2013-5-4,70.9,52.2,36.0,48.0,36.0,18.3,100,62,21,29.70,29.60,5,2,15,0.00
2013-5-5,72.1,50.4,28.9,39.3,32.1,23.2,100,58,17,29.64,29.56,4,1,11,0.00
2013-5-6,80.6,55.5,30.9,47.7,35.7,23.4,100,60,12,29.58,29.48,4,1,8,0.00
2013-5-7,84.9,63.2,40.8,55.2,45.4,28.2,100,62,16,29.53,29.45,4,1,9,0.00
2013-5-8,72.3,60.2,49.3,62.5,56.5,49.0,100,89,56,29.54,29.39,5,2,14,0.67
2013-5-9,71.2,59.3,52.7,59.5,56.3,52.7,100,91,60,29.40,29.24,3,1,8,0.25
2013-5-10,81.5,62.5,48.7,63.8,52.9,48.2,100,76,34,29.30,29.24,3,0,7,0.00
2013-5-11,74.5,61.7,59.9,61.0,59.5,52.4,100,93,46,29.28,29.05,7,3,12,0.47
2013-5-12,70.3,56.2,41.9,54.7,40.3,24.6,96,57,35,29.13,28.95,4,1,14,0.00
2013-5-13,56.3,44.3,36.7,30.7,27.4,21.7,75,53,29,29.36,29.13,4,1,13,0.00
2013-5-14,59.4,44.2,29.3,35.2,29.0,22.6,95,60,27,29.37,29.31,4,1,12,0.00
2013-5-15,64.6,47.5,28.8,51.3,37.9,23.7,100,76,23,29.37,29.02,6,2,14,0.11
2013-5-16,80.6,65.0,41.0,52.4,38.0,24.8,100,46,17,29.18,28.99,5,2,16,0.00
2013-5-17,71.1,55.4,41.5,42.0,37.8,29.3,87,56,22,29.57,29.18,5,2,16,0.00
2013-5-18,73.4,56.4,35.2,48.2,38.2,28.6,99,59,21,29.62,29.55,3,1,7,0.00
2013-5-19,70.5,55.6,42.3,54.8,49.3,42.0,100,82,49,29.66,29.52,4,1,11,0.03
2013-5-20,82.8,65.1,53.6,62.5,58.1,52.8,100,81,48,29.53,29.32,3,1,8,0.02
2013-5-21,87.3,69.0,54.7,67.4,60.6,53.4,100,78,46,29.36,29.25,5,1,15,0.00
2013-5-22,77.7,59.8,48.4,65.1,56.8,48.1,100,91,65,29.32,29.21,4,1,6,0.84
2013-5-23,73.8,63.0,54.3,67.7,61.8,53.5,100,96,79,29.25,29.14,4,2,8,0.57
2013-5-24,63.5,50.5,44.1,62.6,48.4,43.1,100,93,76,29.19,29.01,4,2,10,0.23
2013-5-25,46.8,42.4,36.5,45.3,41.7,34.4,100,97,92,29.17,29.06,4,2,13,0.45
2013-5-26,56.1,44.2,35.1,40.1,36.6,33.2,96,76,48,29.41,29.04,6,2,17,0.03
2013-5-27,65.7,45.3,33.3,42.2,35.7,31.4,100,75,29,29.45,29.40,4,1,10,0.00
2013-5-28,41.9,41.8,41.5,41.6,41.2,40.8,99,98,96,29.52,29.51,2,1,2,0.00
2013-5-29,71.6,67.5,62.1,64.4,62.8,59.7,95,85,76,29.39,29.34,2,1,5,0.21
2013-5-30,90.7,72.8,59.5,68.1,62.8,59.3,100,75,41,29.46,29.38,2,1,4,0.00
2013-5-31,95.4,75.2,57.4,70.0,62.7,57.1,100,69,34,29.48,29.36,3,0,5,0.00
2013-6-1,94.1,77.7,60.8,67.8,63.6,59.0,100,68,35,29.39,29.28,4,1,11,0.00
2013-6-2,90.3,75.0,63.7,69.1,66.0,62.7,100,78,43,29.25,29.12,7,2,11,0.06
2013-6-3,82.0,67.3,60.1,66.1,56.7,44.6,100,72,41,29.21,29.16,3,1,5,0.11
2013-6-4,61.0,54.4,50.4,46.2,45.5,44.1,84,72,54,29.46,29.36,0,0,2,0.00
2013-6-5,75.4,59.6,42.8,51.4,45.5,37.7,100,66,30,29.52,29.45,2,0,7,0.00
2013-6-6,74.1,60.4,47.7,54.3,48.9,45.6,100,70,41,29.52,29.45,4,1,11,0.01
2013-6-7,53.2,51.1,48.7,52.3,50.4,47.8,100,98,93,29.46,29.16,4,2,14,0.00
2013-6-8,78.1,60.1,48.9,62.1,55.0,48.7,100,85,58,29.38,28.99,4,1,11,0.00
2013-6-9,80.4,64.5,50.9,57.4,54.0,50.6,100,73,40,29.55,29.37,2,1,8,0.00
2013-6-10,72.0,59.6,49.5,62.7,55.3,49.2,100,87,55,29.56,29.34,4,1,8,0.01
2013-6-11,59.7,55.4,52.3,56.3,54.3,52.3,100,96,86,29.34,28.93,4,2,11,0.03
2013-6-12,67.1,57.9,49.6,55.1,52.5,49.4,100,84,58,29.20,28.92,4,1,19,0.00
2013-6-13,63.1,50.7,43.7,56.9,50.0,43.2,100,97,77,29.18,29.04,3,1,8,0.01
2013-6-14,79.7,59.0,48.0,57.9,51.3,46.8,100,80,33,29.18,29.00,3,1,8,0.00
2013-6-15,80.2,63.2,48.2,53.3,46.5,36.8,100,62,22,29.33,29.18,4,1,10,0.00
2013-6-16,75.4,62.3,46.9,58.6,52.2,46.7,100,73,44,29.32,29.08,4,1,9,0.00
2013-6-17,83.8,68.2,53.6,62.4,57.6,52.8,100,73,38,29.26,29.16,3,1,9,0.03
2013-6-18,62.6,56.9,54.1,60.8,55.4,53.3,97,95,87,29.30,29.27,2,0,6,0.23
2013-6-19,78.8,61.6,47.7,54.1,47.9,38.5,100,68,25,29.52,29.26,3,1,10,0.01
2013-6-20,84.0,62.7,42.4,59.0,46.9,42.1,100,64,26,29.62,29.52,3,0,10,0.00
2013-6-21,89.4,68.1,51.1,59.1,52.7,46.1,100,65,24,29.62,29.57,2,0,7,0.00
2013-6-22,87.6,70.5,54.9,63.7,59.0,54.0,100,70,38,29.61,29.50,4,1,10,0.00
2013-6-23,92.3,76.3,61.0,70.2,64.3,57.3,89,68,48,29.54,29.39,4,1,10,0.00
2013-6-24,93.2,77.5,67.3,70.6,68.1,66.0,100,77,44,29.42,29.36,2,1,12,0.00
2013-6-25,89.4,79.4,64.0,69.9,66.8,63.2,99,69,48,29.34,29.25,2,1,8,0.00
2013-6-26,70.9,69.7,66.7,67.7,67.1,66.5,99,91,89,29.18,29.16,1,0,2,0.13
2013-6-27,66.9,66.3,65.3,65.8,65.6,65.0,99,98,96,29.16,29.15,2,1,4,0.01
2013-6-28,82.0,70.3,55.8,71.8,66.8,55.5,100,90,65,29.11,28.86,5,2,10,0.18
2013-6-29,75.0,69.4,67.6,69.5,68.0,65.7,100,96,80,28.96,28.88,3,1,8,0.01
2013-6-30,86.0,79.5,68.0,69.2,67.0,65.0,96,67,51,29.25,29.10,4,1,10,0.00
2013-7-1,74.1,71.2,68.7,72.4,70.0,68.4,100,96,87,29.44,29.32,2,0,2,0.54
2013-7-2,82.2,72.7,65.3,71.9,68.9,64.4,100,89,66,29.55,29.43,3,1,6,0.01
2013-7-3,88.5,78.1,63.0,72.5,69.8,62.1,100,77,56,29.58,29.51,3,1,9,0.00
2013-7-4,92.7,80.8,71.6,72.7,70.6,67.6,96,74,47,29.58,29.50,3,1,14,0.00
2013-7-5,93.9,82.2,70.0,73.9,71.0,67.6,100,72,47,29.55,29.45,3,1,9,0.00
2013-7-6,91.2,77.2,66.2,72.1,63.3,59.1,95,64,40,29.48,29.42,2,0,8,0.00
2013-7-7,94.3,72.4,64.0,70.7,64.2,60.5,93,77,46,29.44,29.36,2,0,5,0.00
2013-7-8,90.9,73.7,67.3,73.1,68.1,66.3,100,85,45,29.45,29.32,3,1,8,0.15
2013-7-9,80.1,68.8,63.7,70.2,65.8,62.8,100,91,66,29.49,29.43,3,1,8,0.01
2013-7-10,79.0,68.3,64.9,71.8,66.6,64.7,100,95,78,29.43,29.28,2,1,4,0.00
2013-7-11,89.4,76.0,65.1,71.8,67.5,61.8,97,77,46,29.36,29.16,2,0,5,0.01
2013-7-12,80.1,69.2,62.2,61.5,57.7,53.5,88,68,45,29.58,29.35,4,1,11,0.00
2013-7-13,77.4,68.8,61.2,69.2,62.5,53.3,100,81,58,29.69,29.57,2,0,7,0.03
2013-7-14,92.7,78.4,68.0,72.7,69.0,64.4,100,76,44,29.69,29.62,2,0,8,0.01
2013-7-15,95.7,82.6,65.1,73.7,68.0,63.9,100,65,41,29.62,29.53,2,1,8,0.00
2013-7-16,94.6,77.4,63.0,70.7,66.3,62.1,99,73,41,29.58,29.54,2,0,8,0.00
2013-7-17,96.1,80.7,63.9,73.4,67.6,63.0,100,69,43,29.58,29.44,0,0,0,0.00
2013-7-18,80.1,69.1,61.2,60.2,56.6,53.3,86,65,47,29.62,29.45,7,1,11,0.00
2013-7-19,77.2,70.8,66.0,70.7,66.9,56.0,100,88,58,29.69,29.64,2,0,3,0.02
2013-7-20,91.4,77.0,65.1,71.2,68.0,64.8,100,77,42,29.69,29.59,2,0,3,0.01
2013-7-21,95.2,78.4,63.1,72.2,66.8,62.3,99,72,40,29.60,29.53,2,0,4,0.00
2013-7-22,93.2,77.6,63.9,70.7,66.6,63.0,99,73,42,29.59,29.55,2,0,4,0.00
2013-7-23,95.7,75.5,64.8,72.5,68.4,64.5,100,81,43,29.58,28.95,2,0,6,0.55
2013-7-24,84.0,70.8,64.4,72.8,65.6,61.5,100,86,50,29.13,28.98,2,0,11,0.00
2013-7-25,71.2,61.7,52.7,57.5,53.4,45.5,95,75,55,29.47,29.33,3,1,8,0.00
2013-7-26,72.9,63.4,58.6,62.9,59.3,55.8,100,87,69,29.43,29.33,3,1,8,0.18
2013-7-27,87.8,69.3,52.2,66.9,58.8,52.2,100,74,40,29.42,29.35,2,0,8,0.00
2013-7-28,84.9,69.3,55.8,68.3,62.5,55.5,100,82,48,29.40,29.34,2,0,7,0.04
2013-7-29,87.8,75.1,60.3,69.5,62.5,58.2,99,68,39,29.46,29.35,3,1,11,0.00
2013-7-30,84.2,67.9,54.3,58.8,55.2,50.2,97,68,35,29.50,29.43,2,0,9,0.00
2013-7-31,87.8,67.7,54.0,62.5,56.5,51.3,100,72,33,29.51,29.42,2,0,6,0.00
2013-8-1,82.0,64.3,54.5,67.1,58.8,53.7,100,85,49,29.42,29.24,4,1,10,0.35
2013-8-2,85.3,70.0,61.7,68.4,60.2,52.3,100,75,35,29.26,29.16,2,0,8,0.28
2013-8-3,71.2,61.0,55.6,62.5,58.0,54.9,100,90,66,29.25,29.16,2,0,5,0.00
2013-8-4,79.3,63.6,50.5,57.2,53.0,50.0,100,72,39,29.26,29.15,2,0,7,0.00
2013-8-5,77.4,64.6,49.3,50.8,43.0,35.4,96,50,24,29.41,29.23,3,1,14,0.00
2013-8-6,83.3,57.3,44.1,59.2,49.2,43.8,100,79,31,29.51,29.38,2,0,5,0.00
2013-8-7,82.2,65.0,51.3,59.9,54.4,47.2,100,73,32,29.55,29.47,4,1,11,0.00
2013-8-8,82.2,71.1,63.3,69.0,65.4,59.6,100,83,60,29.47,29.40,4,2,9,0.00
2013-8-9,73.6,70.4,68.4,73.6,69.5,67.8,100,97,90,29.40,29.14,4,1,8,1.55
2013-8-10,83.8,69.7,53.8,71.1,59.4,50.8,100,74,39,29.40,29.18,3,0,12,0.00
2013-8-11,82.9,63.4,46.9,63.6,52.2,46.7,100,72,35,29.44,29.38,2,0,8,0.00
2013-8-12,82.8,60.4,51.6,61.5,55.7,51.3,100,87,39,29.40,29.30,2,0,4,0.00
2013-8-13,73.6,63.8,59.4,66.6,61.9,58.4,100,94,76,29.30,29.06,2,0,4,0.16
2013-8-14,73.6,61.8,50.4,63.2,52.9,48.5,100,75,48,29.31,29.05,3,1,11,0.00
2013-8-15,79.0,64.7,45.5,55.6,50.2,44.7,100,63,36,29.44,29.31,2,0,8,0.00
2013-8-16,83.3,67.5,46.6,57.5,51.9,46.3,100,62,32,29.55,29.44,2,0,8,0.00
2013-8-17,88.0,64.5,47.7,61.5,53.9,47.4,100,74,28,29.63,29.55,2,0,5,0.00
2013-8-18,86.7,66.1,53.6,67.9,57.4,52.6,100,77,39,29.63,29.45,1,0,4,0.00
2013-8-19,80.6,65.8,55.2,62.6,57.4,54.4,100,78,46,29.45,29.36,2,0,6,0.00
2013-8-20,87.6,74.1,54.3,65.2,59.6,53.5,100,65,37,29.49,29.37,2,0,7,0.00
2013-8-21,90.0,71.8,55.2,67.8,60.2,54.4,100,71,38,29.52,29.43,1,0,7,0.00
2013-8-22,89.1,78.8,18.1,67.7,62.7,-67.4,100,61,1,31.64,29.24,3,1,8,0.00
2013-8-23,79.7,69.2,55.2,66.6,53.8,49.2,93,60,42,29.49,29.23,3,1,13,0.00
2013-8-24,81.5,62.1,47.7,56.4,48.6,37.5,100,68,22,29.68,29.49,3,0,6,0.00
2013-8-25,84.9,64.6,46.0,63.7,51.7,42.9,100,69,25,29.70,29.54,2,0,8,0.00
2013-8-26,80.1,67.7,59.5,65.8,61.6,55.7,100,82,59,29.55,29.26,2,0,8,0.05
2013-8-27,88.9,72.4,65.3,71.4,66.1,63.3,100,83,45,29.30,29.22,3,0,8,0.03
2013-8-28,85.5,71.3,61.0,73.4,65.7,61.0,100,84,55,29.29,29.24,2,0,5,0.01
2013-8-29,65.8,62.0,59.9,64.7,60.8,58.8,100,96,93,29.43,29.40,3,1,8,0.44
2013-8-30,87.3,68.9,58.3,66.5,62.4,57.4,100,83,48,29.37,29.21,2,0,4,0.00
2013-8-31,78.6,70.4,64.8,71.6,68.5,63.9,100,94,76,29.21,29.17,4,1,8,0.37
2013-9-1,82.4,71.8,65.5,70.5,67.9,64.8,100,89,64,29.26,29.18,2,1,3,0.01
2013-9-2,74.5,74.5,74.5,71.4,71.4,71.4,90,90,90,29.18,29.18,0,0,2,0.00
2013-9-3,77.9,69.9,63.0,70.8,62.5,57.6,100,78,67,29.16,29.08,2,0,5,0.00
2013-9-4,81.1,65.5,55.4,60.1,54.8,52.0,97,71,38,29.30,29.15,3,1,4,0.00
2013-9-5,70.9,59.0,44.4,58.4,46.8,37.6,97,68,35,29.50,29.22,3,1,8,0.00
2013-9-6,69.8,52.2,36.7,49.7,41.1,35.7,100,72,31,29.57,29.42,2,0,8,0.00
2013-9-7,80.1,58.7,42.4,55.7,48.0,42.2,100,72,34,29.43,29.26,2,0,6,0.00
2013-9-8,70.5,63.1,54.7,59.4,47.9,39.4,94,60,39,29.28,29.11,3,2,12,0.00
2013-9-9,68.2,58.2,35.2,49.6,44.9,34.0,99,64,36,29.53,29.42,3,1,7,0.00
2013-9-10,71.1,58.8,53.2,68.1,55.9,48.9,100,90,85,29.47,29.37,3,1,5,0.20
2013-9-11,93.0,84.7,70.5,76.1,72.7,65.8,97,68,53,29.44,29.36,4,1,8,0.00
2013-9-12,76.6,68.3,64.2,73.2,66.6,63.4,100,95,86,29.34,29.04,2,0,3,0.99
2013-9-13,72.3,67.8,63.3,67.4,63.8,59.9,100,87,73,29.04,28.98,2,0,8,0.03
2013-9-16,86.5,69.5,54.9,63.1,58.3,53.3,100,72,39,30.52,30.41,6,1,8,0.00
2013-9-17,90.3,75.5,61.0,69.4,63.3,57.4,89,68,48,30.45,30.29,5,1,8,0.00
2013-9-18,95.2,78.6,67.5,70.4,67.9,64.7,100,74,43,30.35,30.22,4,1,5,0.15
2013-9-19,91.6,75.3,64.0,69.9,66.5,63.2,100,78,46,30.27,30.06,4,1,5,0.33
2013-9-20,82.2,70.8,64.9,74.4,67.6,64.7,99,91,66,30.11,30.04,2,0,4,0.14
2013-9-21,75.7,68.1,64.0,68.1,65.6,63.2,99,92,76,30.13,30.07,5,1,7,0.01
2013-9-22,65.5,58.0,48.2,63.0,48.5,39.4,100,72,54,30.10,29.87,5,1,9,8.07
2013-9-23,59.9,49.4,39.7,42.5,39.0,35.8,89,68,50,30.20,30.09,4,1,14,0.00
2013-9-24,65.8,49.7,37.4,42.3,39.3,35.3,94,70,38,30.22,30.08,4,1,8,0.00
2013-9-25,68.7,57.5,40.6,51.1,47.9,39.6,96,71,50,30.24,30.12,3,1,12,0.00
2013-9-26,69.3,54.1,48.4,49.7,46.8,44.2,93,78,43,30.37,30.23,2,0,5,0.00
2013-9-27,63.0,54.4,45.5,52.1,48.7,44.4,97,82,61,30.51,30.37,2,0,8,0.00
2013-9-28,72.3,54.6,42.1,54.3,48.3,42.0,100,82,46,30.57,30.50,3,0,6,0.00
2013-9-29,71.1,52.4,40.8,55.6,45.1,40.6,100,80,42,30.50,30.36,3,0,7,0.00
2013-9-30,72.7,51.3,36.9,52.8,44.5,35.3,100,81,41,30.37,30.23,3,0,6,0.00
2013-10-1,77.9,54.5,40.3,56.2,48.7,40.0,100,84,41,30.23,30.14,2,0,8,0.00
2013-10-2,79.0,59.9,46.4,59.4,53.2,45.6,100,81,46,30.24,30.13,3,0,10,0.00
2013-10-3,79.0,58.3,45.0,54.8,49.1,42.1,96,76,30,30.35,30.24,2,0,6,0.00
2013-10-4,61.7,53.9,46.8,55.8,51.8,45.7,97,93,75,30.36,30.29,1,0,3,0.44
2013-10-5,67.5,59.0,54.1,57.4,55.3,53.0,97,88,65,30.38,30.30,1,0,4,0.08
2013-10-6,57.2,52.1,48.4,55.9,51.0,46.7,100,96,93,30.45,30.35,4,1,12,0.28
2013-10-7,72.9,59.4,52.3,65.0,57.4,51.5,97,93,72,30.36,30.03,7,2,18,0.02
2013-10-8,65.5,53.8,39.9,50.1,39.9,33.2,100,63,33,30.58,30.16,3,1,9,0.00
2013-10-9,61.7,44.6,34.9,44.0,38.7,33.6,100,84,39,30.68,30.58,4,1,8,0.00
2013-10-10,60.3,46.9,34.3,50.2,41.4,33.1,100,83,53,30.59,30.42,2,0,4,0.00
2013-10-11,72.7,53.9,41.0,50.7,42.6,20.1,97,73,16,30.43,30.36,3,1,8,0.00
2013-10-12,52.9,49.7,45.1,51.5,48.0,44.1,97,94,83,30.63,30.41,6,2,11,0.01
2013-10-13,54.7,47.5,37.4,47.8,44.0,36.6,100,88,70,30.68,30.61,4,1,11,0.00
2013-10-14,67.5,48.7,33.1,50.6,42.0,31.8,100,80,46,30.63,30.48,2,0,7,0.00
2013-10-15,65.7,55.8,48.2,53.8,49.7,46.3,94,81,65,30.52,30.42,6,1,8,0.00
2013-10-16,60.1,51.9,45.9,49.5,46.5,44.1,95,83,58,30.42,30.16,2,0,5,0.00
2013-10-17,72.5,57.2,47.3,56.8,48.9,42.8,95,77,35,30.16,29.97,4,1,10,0.00
2013-10-18,63.9,55.9,42.3,58.7,46.7,35.8,96,73,47,30.14,29.86,4,2,15,0.15
2013-10-19,64.9,42.1,33.8,45.9,36.4,31.7,100,83,41,30.20,28.63,3,0,8,0.00
2013-10-20,59.2,48.1,34.9,47.7,35.0,30.8,95,63,40,30.26,29.93,4,1,14,0.02
2013-10-21,64.8,42.5,31.1,42.9,34.1,29.3,96,76,38,30.34,30.25,3,1,8,0.00
2013-10-22,58.8,49.5,41.5,48.3,42.6,32.5,96,78,63,30.19,29.95,4,1,8,0.00
2013-10-23,51.6,41.2,29.8,37.7,30.8,27.3,91,69,39,30.03,29.82,2,0,4,0.00
2013-10-24,49.3,40.4,29.5,32.5,27.5,23.9,86,62,41,30.08,29.89,4,1,9,0.00
2013-10-25,47.3,36.1,26.1,32.5,25.6,19.3,88,67,41,30.35,30.09,6,1,11,0.00
2013-10-26,52.2,38.7,25.3,33.2,25.5,19.4,88,62,33,30.35,30.08,7,2,10,0.00
2013-10-27,49.8,43.2,34.0,33.9,29.4,25.4,73,58,44,30.27,30.01,4,1,6,0.00
2013-10-28,57.9,35.7,26.6,34.2,23.9,17.7,89,64,34,30.55,30.26,5,1,8,0.00
2013-10-29,45.0,27.2,20.3,25.1,18.2,13.5,85,72,30,30.64,30.54,3,0,8,0.00
2013-10-30,50.0,35.4,24.6,35.9,26.1,10.9,90,69,55,30.55,30.40,4,0,5,0.00
2013-10-31,57.9,45.0,29.5,56.2,42.9,27.2,96,92,87,30.45,30.03,8,2,14,0.27
2013-11-1,62.8,60.5,56.1,58.0,56.4,53.7,92,86,83,30.00,29.77,8,6,17,0.13
2013-11-2,64.6,47.5,36.3,45.8,39.2,33.4,95,76,42,29.91,29.86,2,0,4,0.00
2013-11-3,91.6,75.0,64.0,69.9,66.6,63.2,100,79,46,29.60,29.39,4,1,5,0.32
2013-11-4,82.2,70.7,64.9,74.4,67.6,64.7,99,91,66,29.46,29.37,2,0,4,0.14
2013-11-5,75.7,68.1,63.9,68.1,65.6,63.0,99,92,76,29.46,29.40,5,1,7,0.01
2013-11-6,63.5,52.4,43.3,62.6,42.7,38.8,100,70,54,29.93,29.20,8,3,14,10.32
2013-11-7,58.1,49.2,36.0,52.8,42.9,20.1,87,79,52,29.57,29.26,6,2,17,0.08
2013-11-8,44.8,34.4,25.3,30.8,21.2,15.7,76,58,45,29.59,29.36,4,2,15,0.00
2013-11-9,42.6,33.7,25.7,24.5,19.3,14.9,68,56,39,29.72,29.53,3,1,11,0.00
2013-11-10,47.1,39.7,34.9,39.1,30.9,24.2,93,71,60,29.53,29.30,4,1,17,0.04
2013-11-11,48.4,40.3,33.4,28.5,23.8,18.7,68,52,32,29.62,29.41,5,2,14,0.00
2013-11-12,41.7,35.7,28.9,30.2,24.7,12.8,80,64,50,29.58,29.42,4,2,11,0.00
2013-11-13,22.5,20.5,18.1,9.3,8.4,6.6,62,59,56,29.78,29.67,4,2,9,0.00
2013-11-14,50.0,35.1,25.3,22.6,17.5,9.9,62,50,28,29.64,29.56,4,1,8,0.00
2013-11-15,57.0,36.9,25.0,21.2,15.8,10.5,65,45,21,29.72,29.63,4,1,9,0.00
2013-11-16,59.9,40.2,30.2,30.4,25.3,18.3,83,59,24,29.85,29.71,2,0,8,0.00
2013-11-17,52.5,42.9,30.0,50.4,39.4,26.0,94,88,81,29.84,29.40,4,1,10,0.02
2013-11-18,61.2,53.3,42.4,57.1,43.0,27.0,94,70,37,29.39,29.11,6,2,17,0.23
2013-11-19,42.8,34.0,25.5,27.6,16.2,7.7,60,48,36,29.81,29.23,6,3,20,0.00
2013-11-20,38.7,25.9,18.1,11.3,8.7,2.4,68,49,23,30.12,29.81,5,1,14,0.00
2013-11-21,37.4,19.1,15.1,21.1,9.4,3.3,76,67,24,30.12,30.09,4,0,10,0.00
2013-11-22,43.7,39.5,34.2,41.8,35.7,27.1,93,86,68,29.86,29.36,3,0,6,0.18
2013-11-23,43.7,31.5,23.5,41.8,14.6,-0.8,93,50,31,29.48,29.32,5,2,17,0.00
2013-11-24,23.7,18.3,13.8,9.3,-6.8,-24.8,59,33,11,29.66,29.30,8,4,22,0.00
2013-11-25,31.6,20.3,10.8,7.8,-5.0,-14.6,49,32,22,29.83,29.66,4,2,15,0.00
2013-11-26,33.6,29.4,24.4,29.9,18.7,6.7,88,65,42,29.80,29.54,3,1,10,0.05
2013-11-27,51.4,40.9,31.6,49.4,38.7,27.4,95,92,85,29.54,28.82,5,1,17,1.19
2013-11-28,32.0,24.3,13.3,27.6,7.6,-6.1,84,51,24,29.90,29.02,0,0,0,0.00
2013-11-29,30.0,18.8,8.8,10.9,1.2,-8.1,75,49,22,30.21,29.90,0,0,0,0.00
2013-11-30,28.8,12.8,4.8,6.8,-0.1,-4.1,72,57,32,30.25,30.10,0,0,0,0.00
2013-12-1,38.8,34.0,26.6,34.8,29.4,14.2,90,83,59,29.89,29.54,2,1,4,0.00
2013-12-2,36.7,32.8,31.8,34.0,30.2,29.1,91,90,89,29.54,29.43,2,0,4,0.01
2013-12-3,45.9,32.8,26.4,39.0,28.3,22.2,95,84,56,29.47,29.39,2,0,5,0.01
2013-12-4,40.5,31.2,24.1,25.8,22.0,19.6,85,70,51,29.71,29.47,2,0,5,0.00
2013-12-5,52.2,39.9,25.7,49.9,36.6,21.0,93,88,74,29.71,29.44,4,1,12,0.01
2013-12-6,51.8,42.5,31.3,49.7,39.2,27.9,95,88,71,29.69,29.41,4,1,10,0.13
2013-12-7,31.3,30.2,29.1,27.9,26.6,25.0,88,86,81,29.71,29.59,0,0,0,0.00
2013-12-8,27.9,23.8,14.0,16.0,11.8,7.0,77,60,44,30.06,29.95,0,0,0,0.01
2013-12-9,33.3,28.1,20.3,29.4,23.0,10.7,88,81,60,29.97,29.38,2,0,10,0.00
2013-12-10,33.1,26.7,13.1,29.0,19.8,5.1,89,75,57,29.47,29.28,0,0,0,0.00
2013-12-11,29.5,19.3,11.7,12.6,9.1,4.5,75,65,41,29.65,29.47,0,0,0,0.00
2013-12-12,23.0,12.0,0.9,11.2,-3.4,-13.2,76,53,23,29.72,29.49,4,0,14,0.00
2013-12-13,10.4,8.3,5.4,-0.6,-3.0,-5.5,62,59,55,29.49,29.43,2,1,4,0.00
2013-12-14,13.5,9.6,1.2,5.3,-5.9,-15.6,73,51,27,30.03,29.63,6,3,11,0.00
2013-12-15,26.1,18.7,12.0,21.1,12.6,5.0,83,77,72,29.63,28.97,6,2,15,0.01
2013-12-16,23.2,18.6,13.8,15.2,9.8,5.1,79,68,52,29.44,29.21,4,2,16,0.00
2013-12-17,15.3,4.4,-8.9,5.9,-5.2,-21.4,73,64,53,29.68,29.45,3,1,4,0.00
2013-12-18,30.6,19.5,11.3,21.2,12.2,4.3,77,73,64,29.55,29.38,4,0,5,0.00
2013-12-19,24.3,22.7,19.9,16.9,15.7,13.3,76,74,73,29.56,29.53,3,1,61,0.00
2013-12-20,48.4,36.2,25.9,31.2,26.2,19.7,83,68,45,29.62,29.42,4,0,6,0.31
2013-12-21,55.6,47.8,36.0,44.2,39.4,27.5,90,74,56,29.49,29.39,3,0,10,0.01
2013-12-22,57.0,44.9,33.6,54.8,42.9,31.7,96,93,88,29.53,29.26,7,1,14,0.03
2013-12-23,33.6,32.5,32.0,31.8,30.7,30.2,93,93,93,29.58,29.50,4,1,8,0.10
2013-12-24,32.5,27.1,19.6,30.7,13.7,4.3,93,58,36,29.63,29.51,1,0,3,0.01
2013-12-25,20.1,14.9,7.3,5.0,-6.7,-11.7,58,38,25,29.97,29.64,0,0,0,0.00
2013-12-28,44.1,35.1,26.2,25.2,22.8,19.4,76,62,45,29.59,29.49,3,1,12,0.08
2013-12-29,40.8,32.7,25.7,32.5,26.2,19.4,89,77,56,29.55,29.02,5,1,11,0.58
2013-12-30,36.5,27.8,10.0,30.8,16.4,-2.4,89,63,39,29.64,29.09,5,1,14,0.01
2013-12-31,21.6,12.9,2.5,8.5,-0.7,-7.1,71,55,32,29.62,29.44,3,1,11,0.00
2014-1-1,22.5,14.4,7.0,5.1,-0.3,-4.8,68,52,37,29.82,29.61,4,1,12,0.00
2014-1-2,14.2,7.3,-1.7,5.6,-2.4,-13.0,70,64,57,29.78,29.30,9,4,23,0.00